createdAt,value
2022-10-26T00:00:12.363Z,6.55
2022-10-26T00:00:44.676Z,6.82
2022-10-26T00:01:22.736Z,7.03
2022-10-26T00:01:55.137Z,6.93
2022-10-26T00:02:27.421Z,7.03
2022-10-26T00:03:02.183Z,7.30
2022-10-26T00:03:35.259Z,6.40
2022-10-26T00:04:07.345Z,6.45
2022-10-26T00:04:42.080Z,6.82
2022-10-26T00:05:14.263Z,7.43
2022-10-26T00:05:46.407Z,6.65
2022-10-26T00:06:22.716Z,8.10
2022-10-26T00:06:54.813Z,7.53
2022-10-26T00:07:29.164Z,8.10
2022-10-26T00:08:04.010Z,7.25
2022-10-26T00:08:36.616Z,7.10
2022-10-26T00:09:08.677Z,7.40
2022-10-26T00:09:43.512Z,7.10
2022-10-26T00:10:15.814Z,7.85
2022-10-26T00:10:47.936Z,6.45
2022-10-26T00:11:22.867Z,8.23
2022-10-26T00:11:54.974Z,6.65
2022-10-26T00:12:27.068Z,7.03
2022-10-26T00:13:02.158Z,7.10
2022-10-26T00:13:35.610Z,6.65
2022-10-26T00:14:10.250Z,6.95
2022-10-26T00:14:42.353Z,6.88
2022-10-26T00:15:14.461Z,7.43
2022-10-26T00:15:49.216Z,7.03
2022-10-26T00:16:26.416Z,7.00
2022-10-26T00:16:58.501Z,6.78
2022-10-26T00:17:33.146Z,6.68
2022-10-26T00:18:05.293Z,7.63
2022-10-26T00:18:37.831Z,7.35
2022-10-26T00:19:12.567Z,6.38
2022-10-26T00:19:44.708Z,8.00
2022-10-26T00:20:16.925Z,7.32
2022-10-26T00:20:49.003Z,7.63
2022-10-26T00:21:23.673Z,7.40
2022-10-26T00:21:55.788Z,7.00
2022-10-26T00:22:27.935Z,7.07
2022-10-26T00:23:00.027Z,7.28
2022-10-26T00:23:34.862Z,6.95
2022-10-26T00:24:07.222Z,6.13
2022-10-26T00:24:39.429Z,7.43
2022-10-26T00:25:14.118Z,7.00
2022-10-26T00:25:54.591Z,6.68
2022-10-26T00:26:26.779Z,6.85
2022-10-26T00:27:01.435Z,6.35
2022-10-26T00:27:34.635Z,7.35
2022-10-26T00:28:06.726Z,7.68
2022-10-26T00:28:41.482Z,6.65
2022-10-26T00:29:13.571Z,7.28
2022-10-26T00:29:45.727Z,6.57
2022-10-26T00:30:20.479Z,6.68
2022-10-26T00:30:52.618Z,7.68
2022-10-26T00:31:29.913Z,7.50
2022-10-26T00:32:02.006Z,7.47
2022-10-26T00:32:34.615Z,7.05
2022-10-26T00:33:09.312Z,7.15
2022-10-26T00:33:42.018Z,7.30
2022-10-26T00:34:14.122Z,8.38
2022-10-26T00:34:48.785Z,7.72
2022-10-26T00:35:23.948Z,7.85
2022-10-26T00:36:09.424Z,7.40
2022-10-26T00:36:44.158Z,8.30
2022-10-26T00:37:16.308Z,8.13
2022-10-26T00:37:48.742Z,8.50
2022-10-26T00:38:21.086Z,7.63
2022-10-26T00:38:57.607Z,7.75
2022-10-26T00:39:29.689Z,7.10
2022-10-26T00:40:01.782Z,8.10
2022-10-26T00:40:33.907Z,7.85
2022-10-26T00:41:09.080Z,7.63
2022-10-26T00:41:41.196Z,7.70
2022-10-26T00:42:15.563Z,7.43
2022-10-26T00:42:50.437Z,8.10
2022-10-26T00:43:37.361Z,7.47
2022-10-26T00:44:42.102Z,7.82
2022-10-26T00:45:20.953Z,8.20
2022-10-26T00:45:58.186Z,8.23
2022-10-26T00:46:36.220Z,7.53
2022-10-26T00:47:10.248Z,8.40
2022-10-26T00:47:48.194Z,9.30
2022-10-26T00:48:25.072Z,8.55
2022-10-26T00:49:03.114Z,9.50
2022-10-26T00:49:35.283Z,8.48
2022-10-26T00:50:11.026Z,9.00
2022-10-26T00:50:50.029Z,7.97
2022-10-26T00:51:27.700Z,9.93
2022-10-26T00:52:00.142Z,10.20
2022-10-26T00:52:35.422Z,10.77
2022-10-26T00:53:09.111Z,10.90
2022-10-26T00:53:41.838Z,9.77
2022-10-26T00:54:19.874Z,8.98
2022-10-26T00:54:52.700Z,9.82
2022-10-26T00:55:30.022Z,11.18
2022-10-26T00:56:05.657Z,10.48
2022-10-26T00:56:38.061Z,10.70
2022-10-26T00:57:11.507Z,9.85
2022-10-26T00:57:46.214Z,10.40
2022-10-26T00:58:21.020Z,10.32
2022-10-26T00:58:53.626Z,11.23
2022-10-26T00:59:28.540Z,10.40
2022-10-26T01:00:01.284Z,11.18
2022-10-26T01:00:33.533Z,12.10
2022-10-26T01:01:08.208Z,11.57
2022-10-26T01:01:46.908Z,11.20
2022-10-26T01:02:19.091Z,10.45
2022-10-26T01:02:55.513Z,11.75
2022-10-26T01:03:28.437Z,10.68
2022-10-26T01:04:01.172Z,11.18
2022-10-26T01:04:36.928Z,10.55
2022-10-26T01:05:10.037Z,11.05
2022-10-26T01:05:45.469Z,10.93
2022-10-26T01:06:20.136Z,11.10
2022-10-26T01:06:53.550Z,11.70
2022-10-26T01:07:27.702Z,12.18
2022-10-26T01:08:03.150Z,11.70
2022-10-26T01:08:35.422Z,10.55
2022-10-26T01:09:07.724Z,11.68
2022-10-26T01:09:42.611Z,11.07
2022-10-26T01:10:15.374Z,12.02
2022-10-26T01:10:48.010Z,11.27
2022-10-26T01:11:22.734Z,11.95
2022-10-26T01:11:54.927Z,11.57
2022-10-26T01:12:26.988Z,11.48
2022-10-26T01:13:02.307Z,11.60
2022-10-26T01:13:36.068Z,11.88
2022-10-26T01:14:10.585Z,12.40
2022-10-26T01:14:45.809Z,12.27
2022-10-26T01:15:18.167Z,11.68
2022-10-26T01:16:03.919Z,12.18
2022-10-26T01:16:58.024Z,11.82
2022-10-26T01:17:43.349Z,11.93
2022-10-26T01:18:24.992Z,12.15
2022-10-26T01:19:16.281Z,11.50
2022-10-26T01:20:21.660Z,12.25
2022-10-26T01:21:16.647Z,11.48
2022-10-26T01:21:56.025Z,10.90
2022-10-26T01:22:35.200Z,12.48
2022-10-26T01:23:19.755Z,10.75
2022-10-26T01:24:07.350Z,11.82
2022-10-26T01:24:58.475Z,11.15
2022-10-26T01:25:49.508Z,10.60
2022-10-26T01:26:49.608Z,11.43
2022-10-26T01:27:28.584Z,11.52
2022-10-26T01:28:05.173Z,10.57
2022-10-26T01:29:08.215Z,11.32
2022-10-26T01:30:25.424Z,11.70
2022-10-26T01:31:05.663Z,10.27
2022-10-26T01:31:42.844Z,10.32
2022-10-26T01:32:23.108Z,10.52
2022-10-26T01:33:21.489Z,10.00
2022-10-26T01:34:01.645Z,10.93
2022-10-26T01:34:37.275Z,9.05
2022-10-26T01:35:17.465Z,10.43
2022-10-26T01:35:54.955Z,9.85
2022-10-26T01:37:38.061Z,9.68
2022-10-26T01:38:17.277Z,9.00
2022-10-26T01:38:59.016Z,9.68
2022-10-26T01:39:38.678Z,9.25
2022-10-26T01:40:18.785Z,9.65
2022-10-26T01:41:01.585Z,9.55
2022-10-26T01:41:38.694Z,8.30
2022-10-26T01:42:13.840Z,8.25
2022-10-26T01:42:54.331Z,9.27
2022-10-26T01:44:07.641Z,8.93
2022-10-26T01:44:43.071Z,10.13
2022-10-26T01:45:16.531Z,9.27
2022-10-26T01:45:53.253Z,9.93
2022-10-26T01:46:36.956Z,9.90
2022-10-26T01:47:11.783Z,8.88
2022-10-26T01:47:47.810Z,9.85
2022-10-26T01:48:24.206Z,9.63
2022-10-26T01:49:04.292Z,8.88
2022-10-26T01:49:41.181Z,8.95
2022-10-26T01:50:13.491Z,9.13
2022-10-26T01:50:50.635Z,8.80
2022-10-26T01:51:23.723Z,8.43
2022-10-26T01:51:55.808Z,8.52
2022-10-26T01:52:31.069Z,9.20
2022-10-26T01:53:03.162Z,8.90
2022-10-26T01:53:35.275Z,9.75
2022-10-26T01:54:09.977Z,9.38
2022-10-26T01:54:42.061Z,9.45
2022-10-26T01:55:44.791Z,8.85
2022-10-26T01:56:23.992Z,8.90
2022-10-26T01:57:00.719Z,8.60
2022-10-26T01:57:38.279Z,8.75
2022-10-26T01:58:21.619Z,8.23
2022-10-26T01:59:13.063Z,8.70
2022-10-26T02:00:09.259Z,8.13
2022-10-26T02:00:50.126Z,8.32
2022-10-26T02:01:44.686Z,8.73
2022-10-26T02:02:45.938Z,7.78
2022-10-26T02:03:23.732Z,8.32
2022-10-26T02:04:10.196Z,8.40
2022-10-26T02:04:53.026Z,8.57
2022-10-26T02:05:51.198Z,7.63
2022-10-26T02:06:33.693Z,9.20
2022-10-26T02:07:20.510Z,8.98
2022-10-26T02:07:58.613Z,7.97
2022-10-26T02:08:59.404Z,7.82
2022-10-26T02:10:21.582Z,8.05
2022-10-26T02:11:04.038Z,8.50
2022-10-26T02:11:40.850Z,8.13
2022-10-26T02:12:23.067Z,8.70
2022-10-26T02:13:03.334Z,8.05
2022-10-26T02:13:43.747Z,8.70
2022-10-26T02:15:05.103Z,8.85
2022-10-26T02:15:45.134Z,9.60
2022-10-26T02:16:27.756Z,8.20
2022-10-26T02:17:09.076Z,8.13
2022-10-26T02:17:49.940Z,7.13
2022-10-26T02:18:33.803Z,7.85
2022-10-26T02:19:11.170Z,8.23
2022-10-26T02:19:50.127Z,8.35
2022-10-26T02:20:28.848Z,8.27
2022-10-26T02:21:05.929Z,8.55
2022-10-26T02:21:46.028Z,8.27
2022-10-26T02:22:23.353Z,9.38
2022-10-26T02:22:59.170Z,8.23
2022-10-26T02:23:35.593Z,8.48
2022-10-26T02:24:13.986Z,7.95
2022-10-26T02:24:48.369Z,8.73
2022-10-26T02:25:24.102Z,8.10
2022-10-26T02:26:02.364Z,8.07
2022-10-26T02:26:36.535Z,7.95
2022-10-26T02:27:16.628Z,8.52
2022-10-26T02:27:56.876Z,8.02
2022-10-26T02:28:34.508Z,9.25
2022-10-26T02:29:11.519Z,8.45
2022-10-26T02:29:47.285Z,7.85
2022-10-26T02:30:19.956Z,8.02
2022-10-26T02:30:56.729Z,9.45
2022-10-26T02:31:31.888Z,9.55
2022-10-26T02:32:08.612Z,8.60
2022-10-26T02:32:45.974Z,8.55
2022-10-26T02:33:22.822Z,9.10
2022-10-26T02:33:57.282Z,8.15
2022-10-26T02:34:34.611Z,8.93
2022-10-26T02:35:07.354Z,8.45
2022-10-26T02:35:46.205Z,8.30
2022-10-26T02:36:23.551Z,9.02
2022-10-26T02:36:59.642Z,8.48
2022-10-26T02:37:36.167Z,8.02
2022-10-26T02:38:10.679Z,8.57
2022-10-26T02:38:44.665Z,9.00
2022-10-26T02:39:21.092Z,8.38
2022-10-26T02:39:55.756Z,8.30
2022-10-26T02:40:29.962Z,9.43
2022-10-26T02:41:07.430Z,8.77
2022-10-26T02:41:41.790Z,8.80
2022-10-26T02:42:15.858Z,8.38
2022-10-26T02:42:52.891Z,8.55
2022-10-26T02:43:26.713Z,9.63
2022-10-26T02:44:07.861Z,8.50
2022-10-26T02:44:47.823Z,8.45
2022-10-26T02:45:24.212Z,10.13
2022-10-26T02:46:00.027Z,8.63
2022-10-26T02:46:34.951Z,8.18
2022-10-26T02:47:10.125Z,8.88
2022-10-26T02:47:42.475Z,8.80
2022-10-26T02:48:18.056Z,8.38
2022-10-26T02:48:50.306Z,8.88
2022-10-26T02:49:22.593Z,8.95
2022-10-26T02:49:57.915Z,9.25
2022-10-26T02:50:38.089Z,8.30
2022-10-26T02:51:14.447Z,9.63
2022-10-26T02:51:52.124Z,9.02
2022-10-26T02:52:33.108Z,8.90
2022-10-26T02:53:14.731Z,8.57
2022-10-26T02:53:54.713Z,8.05
2022-10-26T02:54:32.638Z,8.35
2022-10-26T02:55:11.139Z,9.10
2022-10-26T02:55:52.098Z,10.07
2022-10-26T02:56:28.887Z,8.95
2022-10-26T02:57:06.538Z,9.45
2022-10-26T02:57:40.877Z,8.27
2022-10-26T02:58:17.117Z,8.65
2022-10-26T02:58:56.806Z,8.60
2022-10-26T02:59:33.850Z,9.52
2022-10-26T03:00:07.972Z,9.07
2022-10-26T03:00:43.192Z,8.32
2022-10-26T03:01:15.667Z,8.88
2022-10-26T03:01:48.722Z,9.50
2022-10-26T03:02:26.471Z,9.02
2022-10-26T03:02:59.895Z,9.10
2022-10-26T03:03:32.054Z,9.02
2022-10-26T03:04:07.610Z,8.68
2022-10-26T03:04:39.843Z,9.10
2022-10-26T03:05:15.693Z,9.18
2022-10-26T03:05:50.528Z,9.85
2022-10-26T03:06:23.133Z,10.00
2022-10-26T03:06:55.781Z,9.43
2022-10-26T03:07:30.440Z,10.65
2022-10-26T03:08:02.717Z,9.73
2022-10-26T03:08:34.835Z,8.88
2022-10-26T03:09:09.525Z,9.77
2022-10-26T03:09:41.658Z,9.38
2022-10-26T03:10:13.790Z,8.43
2022-10-26T03:10:48.947Z,8.32
2022-10-26T03:11:21.034Z,9.00
2022-10-26T03:11:53.860Z,9.48
2022-10-26T03:12:28.565Z,8.70
2022-10-26T03:13:00.622Z,9.90
2022-10-26T03:13:32.837Z,9.07
2022-10-26T03:14:07.757Z,9.10
2022-10-26T03:14:41.422Z,9.57
2022-10-26T03:15:13.886Z,10.35
2022-10-26T03:15:48.507Z,9.27
2022-10-26T03:16:20.572Z,9.65
2022-10-26T03:16:52.732Z,9.68
2022-10-26T03:17:30.010Z,12.52
2022-10-26T03:18:02.313Z,10.07
2022-10-26T03:18:34.487Z,9.98
2022-10-26T03:19:09.209Z,10.00
2022-10-26T03:19:41.287Z,10.07
2022-10-26T03:20:14.037Z,9.23
2022-10-26T03:20:48.707Z,10.38
2022-10-26T03:21:20.773Z,9.93
2022-10-26T03:21:52.876Z,10.15
2022-10-26T03:22:27.567Z,10.63
2022-10-26T03:22:59.718Z,8.88
2022-10-26T03:23:34.375Z,9.38
2022-10-26T03:24:07.292Z,9.27
2022-10-26T03:24:39.380Z,11.00
2022-10-26T03:25:15.720Z,9.32
2022-10-26T03:25:47.817Z,10.25
2022-10-26T03:26:19.981Z,10.30
2022-10-26T03:26:57.061Z,11.13
2022-10-26T03:27:31.682Z,10.38
2022-10-26T03:28:05.330Z,9.25
2022-10-26T03:28:39.957Z,8.90
2022-10-26T03:29:12.057Z,9.90
2022-10-26T03:29:44.113Z,9.45
2022-10-26T03:30:19.060Z,9.50
2022-10-26T03:30:51.192Z,10.30
2022-10-26T03:31:23.258Z,9.70
2022-10-26T03:31:57.930Z,9.68
2022-10-26T03:32:32.566Z,11.50
2022-10-26T03:33:04.715Z,11.20
2022-10-26T03:33:39.362Z,10.13
2022-10-26T03:34:11.448Z,10.13
2022-10-26T03:34:43.525Z,10.90
2022-10-26T03:35:18.325Z,12.55
2022-10-26T03:35:54.979Z,10.75
2022-10-26T03:36:29.625Z,10.15
2022-10-26T03:37:01.732Z,10.60
2022-10-26T03:37:33.818Z,9.80
2022-10-26T03:38:08.617Z,11.02
2022-10-26T03:38:40.677Z,10.98
2022-10-26T03:39:12.766Z,12.30
2022-10-26T03:39:47.442Z,10.90
2022-10-26T03:40:19.522Z,13.25
2022-10-26T03:40:51.952Z,12.60
2022-10-26T03:41:26.643Z,10.50
2022-10-26T03:41:59.691Z,10.68
2022-10-26T03:42:34.408Z,10.88
2022-10-26T03:43:09.091Z,11.00
2022-10-26T03:43:41.215Z,11.15
2022-10-26T03:44:13.296Z,9.77
2022-10-26T03:44:48.441Z,10.85
2022-10-26T03:45:20.589Z,10.95
2022-10-26T03:45:52.995Z,10.35
2022-10-26T03:46:27.718Z,10.00
2022-10-26T03:46:59.825Z,9.82
2022-10-26T03:47:34.470Z,9.88
2022-10-26T03:48:09.149Z,10.38
2022-10-26T03:48:41.305Z,8.32
2022-10-26T03:49:13.416Z,8.43
2022-10-26T03:49:48.069Z,8.82
2022-10-26T03:50:22.043Z,8.43
2022-10-26T03:50:58.431Z,8.90
2022-10-26T03:51:33.178Z,8.93
2022-10-26T03:52:05.262Z,8.77
2022-10-26T03:52:37.352Z,10.02
2022-10-26T03:53:12.358Z,8.85
2022-10-26T03:53:44.442Z,9.48
2022-10-26T03:54:16.510Z,11.65
2022-10-26T03:54:48.567Z,9.55
2022-10-26T03:55:23.248Z,10.60
2022-10-26T03:55:55.337Z,9.73
2022-10-26T03:56:27.546Z,9.70
2022-10-26T03:57:02.186Z,10.63
2022-10-26T03:57:34.268Z,9.93
2022-10-26T03:58:08.933Z,11.65
2022-10-26T03:58:41.065Z,9.75
2022-10-26T03:59:13.130Z,9.20
2022-10-26T03:59:47.798Z,10.65
2022-10-26T04:00:19.976Z,11.05
2022-10-26T04:00:52.149Z,10.77
2022-10-26T04:01:26.954Z,11.25
2022-10-26T04:01:59.156Z,10.00
2022-10-26T04:02:31.252Z,9.45
2022-10-26T04:03:08.517Z,8.90
2022-10-26T04:03:40.618Z,9.13
2022-10-26T04:04:12.747Z,10.52
2022-10-26T04:04:47.438Z,11.73
2022-10-26T04:05:19.498Z,10.13
2022-10-26T04:05:54.131Z,9.88
2022-10-26T04:06:26.186Z,8.63
2022-10-26T04:06:58.303Z,10.05
2022-10-26T04:07:32.958Z,10.85
2022-10-26T04:08:05.630Z,9.73
2022-10-26T04:08:37.749Z,10.00
2022-10-26T04:09:12.392Z,9.38
2022-10-26T04:09:44.450Z,9.73
2022-10-26T04:10:16.686Z,10.80
2022-10-26T04:10:51.323Z,10.57
2022-10-26T04:11:23.406Z,10.82
2022-10-26T04:11:55.492Z,10.10
2022-10-26T04:12:30.153Z,11.05
2022-10-26T04:13:02.329Z,11.63
2022-10-26T04:13:34.604Z,9.93
2022-10-26T04:14:09.317Z,13.98
2022-10-26T04:14:41.395Z,12.23
2022-10-26T04:15:13.586Z,12.85
2022-10-26T04:15:48.289Z,11.50
2022-10-26T04:16:20.375Z,11.85
2022-10-26T04:16:52.523Z,13.15
2022-10-26T04:17:27.414Z,12.32
2022-10-26T04:18:00.976Z,12.57
2022-10-26T04:18:35.751Z,12.32
2022-10-26T04:19:10.891Z,12.35
2022-10-26T04:19:42.973Z,13.40
2022-10-26T04:20:15.419Z,13.68
2022-10-26T04:20:50.093Z,13.00
2022-10-26T04:21:22.175Z,15.18
2022-10-26T04:21:54.351Z,13.45
2022-10-26T04:22:29.184Z,11.32
2022-10-26T04:23:02.630Z,13.57
2022-10-26T04:23:34.707Z,11.95
2022-10-26T04:24:09.844Z,14.48
2022-10-26T04:24:42.007Z,13.70
2022-10-26T04:25:14.089Z,12.07
2022-10-26T04:25:49.582Z,11.82
2022-10-26T04:26:21.651Z,14.63
2022-10-26T04:26:53.750Z,13.70
2022-10-26T04:27:25.851Z,13.90
2022-10-26T04:28:00.545Z,14.10
2022-10-26T04:28:34.082Z,14.77
2022-10-26T04:29:06.906Z,15.35
2022-10-26T04:29:41.636Z,13.77
2022-10-26T04:30:14.095Z,14.48
2022-10-26T04:30:48.485Z,16.38
2022-10-26T04:31:23.128Z,13.60
2022-10-26T04:31:55.365Z,11.82
2022-10-26T04:32:27.471Z,13.68
2022-10-26T04:33:02.136Z,14.13
2022-10-26T04:33:36.870Z,13.23
2022-10-26T04:34:12.743Z,13.05
2022-10-26T04:34:45.251Z,14.20
2022-10-26T04:35:20.327Z,13.85
2022-10-26T04:35:52.396Z,14.07
2022-10-26T04:36:24.506Z,16.00
2022-10-26T04:36:59.150Z,14.38
2022-10-26T04:37:31.211Z,15.57
2022-10-26T04:38:07.930Z,12.88
2022-10-26T04:38:40.016Z,16.80
2022-10-26T04:39:12.124Z,18.00
2022-10-26T04:39:46.834Z,19.92
2022-10-26T04:40:19.044Z,16.70
2022-10-26T04:40:51.309Z,16.23
2022-10-26T04:41:26.062Z,15.30
2022-10-26T04:41:58.167Z,14.43
2022-10-26T04:42:34.032Z,14.07
2022-10-26T04:43:08.705Z,14.57
2022-10-26T04:43:40.810Z,15.77
2022-10-26T04:44:15.532Z,15.30
2022-10-26T04:44:47.624Z,14.55
2022-10-26T04:45:19.962Z,16.42
2022-10-26T04:45:58.011Z,14.23
2022-10-26T04:46:30.135Z,16.48
2022-10-26T04:47:02.245Z,15.15
2022-10-26T04:47:36.915Z,13.77
2022-10-26T04:48:11.812Z,17.05
2022-10-26T04:48:50.665Z,17.73
2022-10-26T04:49:22.824Z,13.57
2022-10-26T04:49:54.936Z,16.73
2022-10-26T04:50:30.531Z,17.77
2022-10-26T04:51:02.665Z,16.95
2022-10-26T04:51:34.770Z,15.70
2022-10-26T04:52:09.640Z,13.65
2022-10-26T04:52:41.811Z,14.95
2022-10-26T04:53:13.944Z,13.07
2022-10-26T04:53:48.629Z,18.98
2022-10-26T04:54:20.990Z,18.80
2022-10-26T04:54:53.078Z,18.65
2022-10-26T04:55:28.276Z,20.88
2022-10-26T04:56:01.762Z,17.42
2022-10-26T04:56:34.346Z,18.13
2022-10-26T04:57:09.096Z,16.73
2022-10-26T04:57:44.797Z,17.25
2022-10-26T04:58:19.485Z,17.67
2022-10-26T04:58:54.373Z,18.75
2022-10-26T04:59:29.143Z,20.33
2022-10-26T05:00:01.708Z,23.90
2022-10-26T05:00:34.242Z,19.10
2022-10-26T05:01:08.965Z,19.35
2022-10-26T05:01:41.209Z,18.42
2022-10-26T05:02:13.473Z,17.05
2022-10-26T05:02:48.347Z,16.38
2022-10-26T05:03:20.651Z,16.98
2022-10-26T05:03:55.412Z,16.52
2022-10-26T05:04:30.096Z,15.10
2022-10-26T05:05:56.823Z,16.40
2022-10-26T05:06:30.310Z,16.70
2022-10-26T05:07:04.979Z,15.85
2022-10-26T05:07:37.144Z,17.58
2022-10-26T05:08:09.282Z,18.58
2022-10-26T05:08:43.927Z,16.25
2022-10-26T05:09:16.021Z,15.65
2022-10-26T05:09:48.172Z,14.82
2022-10-26T05:10:22.801Z,16.50
2022-10-26T05:10:55.417Z,16.27
2022-10-26T05:11:30.086Z,15.70
2022-10-26T05:12:02.202Z,14.27
2022-10-26T05:12:34.335Z,16.48
2022-10-26T05:13:09.049Z,13.15
2022-10-26T05:13:41.570Z,14.65
2022-10-26T05:14:14.533Z,14.50
2022-10-26T05:14:49.283Z,15.00
2022-10-26T05:15:21.869Z,15.13
2022-10-26T05:15:56.928Z,14.40
2022-10-26T05:16:29.075Z,15.52
2022-10-26T05:17:01.358Z,16.08
2022-10-26T05:17:36.034Z,17.95
2022-10-26T05:18:09.437Z,15.82
2022-10-26T05:18:44.162Z,15.35
2022-10-26T05:19:19.086Z,12.07
2022-10-26T05:19:55.751Z,16.23
2022-10-26T05:21:05.931Z,13.63
2022-10-26T05:21:38.334Z,17.98
2022-10-26T05:22:14.406Z,17.13
2022-10-26T05:22:52.998Z,14.82
2022-10-26T05:23:25.132Z,14.68
2022-10-26T05:23:59.917Z,15.70
2022-10-26T05:24:32.067Z,14.05
2022-10-26T05:25:05.020Z,14.20
2022-10-26T05:25:40.931Z,15.27
2022-10-26T05:26:13.055Z,17.92
2022-10-26T05:26:45.149Z,16.60
2022-10-26T05:27:19.943Z,12.57
2022-10-26T05:27:52.017Z,15.93
2022-10-26T05:28:26.723Z,18.17
2022-10-26T05:28:58.874Z,16.73
2022-10-26T05:29:31.014Z,12.35
2022-10-26T05:30:39.234Z,14.45
2022-10-26T05:31:11.314Z,14.38
2022-10-26T05:31:45.979Z,15.68
2022-10-26T05:32:18.888Z,12.25
2022-10-26T05:32:54.241Z,14.25
2022-10-26T05:33:29.100Z,15.55
2022-10-26T05:34:01.333Z,14.48
2022-10-26T05:34:34.167Z,11.65
2022-10-26T05:35:11.579Z,13.32
2022-10-26T05:35:43.738Z,14.45
2022-10-26T05:36:21.362Z,13.18
2022-10-26T05:36:54.271Z,12.68
2022-10-26T05:37:31.498Z,13.57
2022-10-26T05:38:07.842Z,11.68
2022-10-26T05:38:42.588Z,14.60
2022-10-26T05:39:15.046Z,14.23
2022-10-26T05:39:47.154Z,12.50
2022-10-26T05:40:21.855Z,14.07
2022-10-26T05:40:55.007Z,13.27
2022-10-26T05:41:29.940Z,16.30
2022-10-26T05:42:02.021Z,16.65
2022-10-26T05:42:34.124Z,14.27
2022-10-26T05:43:09.487Z,17.15
2022-10-26T05:43:41.537Z,14.80
2022-10-26T05:44:13.654Z,16.48
2022-10-26T05:44:48.388Z,14.75
2022-10-26T05:45:20.663Z,16.17
2022-10-26T05:45:53.154Z,12.82
2022-10-26T05:46:27.909Z,13.15
2022-10-26T05:46:59.962Z,15.82
2022-10-26T05:47:34.608Z,14.68
2022-10-26T05:48:07.187Z,15.77
2022-10-26T05:48:39.262Z,16.13
2022-10-26T05:49:13.970Z,14.18
2022-10-26T05:49:46.050Z,14.05
2022-10-26T05:50:18.272Z,14.23
2022-10-26T05:50:52.998Z,11.63
2022-10-26T05:51:27.672Z,11.00
2022-10-26T05:51:59.915Z,12.10
2022-10-26T05:52:38.157Z,13.45
2022-10-26T05:53:12.811Z,15.18
2022-10-26T05:53:45.189Z,14.10
2022-10-26T05:54:19.922Z,17.45
2022-10-26T05:54:52.195Z,17.63
2022-10-26T05:55:25.188Z,13.80
2022-10-26T05:56:00.473Z,16.10
2022-10-26T05:56:36.257Z,13.63
2022-10-26T05:57:14.831Z,14.18
2022-10-26T05:57:48.009Z,13.57
2022-10-26T05:58:23.605Z,17.00
2022-10-26T05:58:56.322Z,14.85
2022-10-26T05:59:29.738Z,15.82
2022-10-26T06:00:05.268Z,12.32
2022-10-26T06:00:54.987Z,13.43
2022-10-26T06:01:37.102Z,11.23
2022-10-26T06:02:19.408Z,11.75
2022-10-26T06:03:20.263Z,11.88
2022-10-26T06:04:07.856Z,14.05
2022-10-26T06:04:48.185Z,16.88
2022-10-26T06:05:58.908Z,16.30
2022-10-26T06:06:42.286Z,12.75
2022-10-26T06:07:16.967Z,14.40
2022-10-26T06:07:52.606Z,16.23
2022-10-26T06:08:26.804Z,11.75
2022-10-26T06:09:02.137Z,10.93
2022-10-26T06:09:34.950Z,13.65
2022-10-26T06:10:10.909Z,15.80
2022-10-26T06:10:46.167Z,14.27
2022-10-26T06:11:19.157Z,15.20
2022-10-26T06:11:51.993Z,10.95
2022-10-26T06:12:27.468Z,14.80
2022-10-26T06:13:00.227Z,11.90
2022-10-26T06:13:33.198Z,15.57
2022-10-26T06:14:08.509Z,10.63
2022-10-26T06:14:41.461Z,13.68
2022-10-26T06:15:17.304Z,11.52
2022-10-26T06:16:05.659Z,10.65
2022-10-26T06:16:47.191Z,13.38
2022-10-26T06:17:39.395Z,9.73
2022-10-26T06:18:20.981Z,10.63
2022-10-26T06:19:06.115Z,14.32
2022-10-26T06:19:51.539Z,14.50
2022-10-26T06:20:40.331Z,12.07
2022-10-26T06:21:28.262Z,14.35
2022-10-26T06:22:18.356Z,13.32
2022-10-26T06:23:05.445Z,12.63
2022-10-26T06:23:50.379Z,13.38
2022-10-26T06:24:32.057Z,13.82
2022-10-26T06:25:16.459Z,11.27
2022-10-26T06:25:56.148Z,12.73
2022-10-26T06:26:40.606Z,14.07
2022-10-26T06:27:24.377Z,11.27
2022-10-26T06:28:08.185Z,11.30
2022-10-26T06:28:57.570Z,10.07
2022-10-26T06:29:44.718Z,11.85
2022-10-26T06:30:17.257Z,11.13
2022-10-26T06:30:52.048Z,14.05
2022-10-26T06:31:24.291Z,12.77
2022-10-26T06:31:59.077Z,9.90
2022-10-26T06:32:31.351Z,8.93
2022-10-26T06:33:18.376Z,11.43
2022-10-26T06:34:00.382Z,10.73
2022-10-26T06:34:38.351Z,9.85
2022-10-26T06:35:20.948Z,11.05
2022-10-26T06:36:07.607Z,10.25
2022-10-26T06:36:41.621Z,7.97
2022-10-26T06:37:19.958Z,8.88
2022-10-26T06:37:54.441Z,9.75
2022-10-26T06:38:29.242Z,10.82
2022-10-26T06:39:07.101Z,13.27
2022-10-26T06:39:44.495Z,8.70
2022-10-26T06:40:18.207Z,8.23
2022-10-26T06:40:55.929Z,9.88
2022-10-26T06:41:31.108Z,9.70
2022-10-26T06:42:06.591Z,9.40
2022-10-26T06:42:39.730Z,9.18
2022-10-26T06:43:16.482Z,9.25
2022-10-26T06:43:53.119Z,9.23
2022-10-26T06:44:26.116Z,9.73
2022-10-26T06:45:01.520Z,8.52
2022-10-26T06:45:34.421Z,11.10
2022-10-26T06:46:17.634Z,9.93
2022-10-26T06:46:59.839Z,10.13
2022-10-26T06:47:40.559Z,12.75
2022-10-26T06:48:21.912Z,10.63
2022-10-26T06:49:01.056Z,11.48
2022-10-26T06:49:40.531Z,10.95
2022-10-26T06:50:24.492Z,10.15
2022-10-26T06:50:57.256Z,9.45
2022-10-26T06:51:34.747Z,11.45
2022-10-26T06:52:17.842Z,10.65
2022-10-26T06:53:00.300Z,10.10
2022-10-26T06:53:41.978Z,10.98
2022-10-26T06:54:22.734Z,10.93
2022-10-26T06:54:57.031Z,10.50
2022-10-26T06:55:40.284Z,9.80
2022-10-26T06:56:14.119Z,10.95
2022-10-26T06:56:49.834Z,10.45
2022-10-26T06:57:24.311Z,11.13
2022-10-26T06:57:59.116Z,10.65
2022-10-26T06:58:35.267Z,11.30
2022-10-26T06:59:16.114Z,10.70
2022-10-26T06:59:51.340Z,9.80
2022-10-26T07:00:27.986Z,9.57
2022-10-26T07:01:00.653Z,9.15
2022-10-26T07:01:35.479Z,7.00
2022-10-26T07:02:09.596Z,9.20
2022-10-26T07:02:44.403Z,7.55
2022-10-26T07:03:17.116Z,9.85
2022-10-26T07:03:49.193Z,5.78
2022-10-26T07:04:23.841Z,7.97
2022-10-26T07:04:55.959Z,8.85
2022-10-26T07:05:31.076Z,8.10
2022-10-26T07:06:03.213Z,11.60
2022-10-26T07:06:36.974Z,7.97
2022-10-26T07:07:17.047Z,8.93
2022-10-26T07:07:52.049Z,7.25
2022-10-26T07:08:27.010Z,6.75
2022-10-26T07:08:59.161Z,7.30
2022-10-26T07:09:31.278Z,7.30
2022-10-26T07:10:07.222Z,7.80
2022-10-26T07:10:39.797Z,5.43
2022-10-26T07:11:14.497Z,5.95
2022-10-26T07:11:46.559Z,5.72
2022-10-26T07:12:19.167Z,7.40
2022-10-26T07:12:53.803Z,8.55
2022-10-26T07:13:25.859Z,6.93
2022-10-26T07:14:00.494Z,6.90
2022-10-26T07:14:32.570Z,6.03
2022-10-26T07:16:00.928Z,8.75
2022-10-26T07:16:35.628Z,7.93
2022-10-26T07:17:09.499Z,10.90
2022-10-26T07:17:48.636Z,7.68
2022-10-26T07:18:20.997Z,7.57
2022-10-26T07:18:53.096Z,8.13
2022-10-26T07:19:27.810Z,8.60
2022-10-26T07:19:59.872Z,8.50
2022-10-26T07:20:33.284Z,10.05
2022-10-26T07:21:08.293Z,10.10
2022-10-26T07:21:40.367Z,8.02
2022-10-26T07:22:15.219Z,9.13
2022-10-26T07:22:54.589Z,8.43
2022-10-26T07:23:26.674Z,8.15
2022-10-26T07:24:01.391Z,5.88
2022-10-26T07:24:33.521Z,6.78
2022-10-26T07:25:08.140Z,9.25
2022-10-26T07:25:42.932Z,9.13
2022-10-26T07:26:15.084Z,11.88
2022-10-26T07:26:49.758Z,9.90
2022-10-26T07:27:24.085Z,9.23
2022-10-26T07:28:01.043Z,8.15
2022-10-26T07:28:33.113Z,12.43
2022-10-26T07:29:07.763Z,12.07
2022-10-26T07:29:39.892Z,9.93
2022-10-26T07:30:12.659Z,11.60
2022-10-26T07:30:47.293Z,11.93
2022-10-26T07:31:19.532Z,11.82
2022-10-26T07:32:48.093Z,9.25
2022-10-26T07:33:20.426Z,9.35
2022-10-26T07:33:54.261Z,10.43
2022-10-26T07:34:29.091Z,7.90
2022-10-26T07:35:01.227Z,9.65
2022-10-26T07:35:33.522Z,8.05
2022-10-26T07:36:11.032Z,8.65
2022-10-26T07:36:43.146Z,9.85
2022-10-26T07:37:15.215Z,8.30
2022-10-26T07:37:49.875Z,6.45
2022-10-26T07:38:24.765Z,6.82
2022-10-26T07:38:59.716Z,4.60
2022-10-26T07:39:32.946Z,6.70
2022-10-26T07:40:07.104Z,12.18
2022-10-26T07:40:41.831Z,10.65
2022-10-26T07:41:14.477Z,9.57
2022-10-26T07:41:49.488Z,8.73
2022-10-26T07:42:21.642Z,8.73
2022-10-26T07:42:57.029Z,8.70
2022-10-26T07:43:31.939Z,8.23
2022-10-26T07:44:04.088Z,6.78
2022-10-26T07:44:36.163Z,7.72
2022-10-26T07:45:11.646Z,8.30
2022-10-26T07:45:43.728Z,6.97
2022-10-26T07:46:15.795Z,8.75
2022-10-26T07:46:50.511Z,7.38
2022-10-26T07:47:22.567Z,9.23
2022-10-26T07:47:55.021Z,9.88
2022-10-26T07:48:29.665Z,11.10
2022-10-26T07:49:01.775Z,9.27
2022-10-26T07:49:36.449Z,9.50
2022-10-26T07:50:09.477Z,8.77
2022-10-26T07:50:41.601Z,10.73
2022-10-26T07:51:16.463Z,10.93
2022-10-26T07:51:48.645Z,8.05
2022-10-26T07:52:20.777Z,9.32
2022-10-26T07:52:55.494Z,12.07
2022-10-26T07:53:30.257Z,7.75
2022-10-26T07:54:05.179Z,9.60
2022-10-26T07:54:38.111Z,9.65